createdAt,value
2023-01-11T00:00:29.651Z,13.20
2023-01-11T00:03:01.507Z,13.20
2023-01-11T00:05:28.447Z,13.30
2023-01-11T00:07:55.551Z,13.30
2023-01-11T00:10:22.705Z,13.30
2023-01-11T00:12:49.583Z,13.30
2023-01-11T00:15:16.754Z,13.30
2023-01-11T00:17:43.448Z,13.40
2023-01-11T00:20:10.608Z,13.40
2023-01-11T00:22:37.752Z,13.50
2023-01-11T00:25:05.076Z,13.50
2023-01-11T00:27:31.810Z,13.50
2023-01-11T00:29:58.521Z,13.40
2023-01-11T00:32:27.199Z,13.40
2023-01-11T00:34:54.474Z,13.50
2023-01-11T00:37:21.261Z,13.60
2023-01-11T00:39:47.962Z,13.50
2023-01-11T00:42:33.223Z,13.50
2023-01-11T00:45:18.578Z,13.50
2023-01-11T00:47:57.405Z,13.60
2023-01-11T00:50:30.546Z,13.60
2023-01-11T00:52:58.515Z,13.60
2023-01-11T00:55:25.995Z,13.60
2023-01-11T00:57:52.932Z,13.80
2023-01-11T01:00:21.058Z,13.60
2023-01-11T01:02:48.187Z,13.70
2023-01-11T01:05:15.253Z,13.60
2023-01-11T01:07:43.789Z,13.60
2023-01-11T01:10:11.971Z,13.70
2023-01-11T01:12:58.318Z,13.70
2023-01-11T01:15:25.396Z,13.60
2023-01-11T01:17:55.510Z,13.80
2023-01-11T01:20:23.912Z,13.60
2023-01-11T01:22:50.684Z,13.70
2023-01-11T01:25:17.636Z,13.70
2023-01-11T01:27:44.333Z,13.80
2023-01-11T01:30:11.731Z,13.80
2023-01-11T01:32:38.493Z,13.90
2023-01-11T01:35:05.514Z,13.80
2023-01-11T01:37:32.235Z,13.90
2023-01-11T01:39:58.907Z,13.90
2023-01-11T01:42:25.741Z,13.90
2023-01-11T01:44:58.670Z,13.90
2023-01-11T01:47:40.465Z,13.90
2023-01-11T01:50:15.845Z,14.10
2023-01-11T01:52:46.278Z,14.00
2023-01-11T01:55:20.962Z,13.90
2023-01-11T01:57:47.684Z,14.00
2023-01-11T02:00:14.665Z,14.00
2023-01-11T02:02:44.348Z,14.10
2023-01-11T02:05:12.607Z,13.90
2023-01-11T02:07:41.017Z,14.00
2023-01-11T02:10:19.960Z,13.90
2023-01-11T02:13:01.451Z,14.10
2023-01-11T02:15:29.631Z,14.00
2023-01-11T02:17:56.290Z,14.10
2023-01-11T02:20:52.762Z,14.00
2023-01-11T02:23:38.179Z,14.20
2023-01-11T02:26:16.801Z,14.20
2023-01-11T02:28:55.341Z,14.20
2023-01-11T02:31:39.556Z,14.20
2023-01-11T02:34:25.455Z,14.20
2023-01-11T02:37:18.314Z,14.20
2023-01-11T02:40:23.174Z,14.20
2023-01-11T02:43:14.731Z,14.20
2023-01-11T02:46:02.871Z,14.20
2023-01-11T02:48:40.691Z,14.20
2023-01-11T02:51:13.016Z,14.20
2023-01-11T02:53:56.428Z,14.20
2023-01-11T02:56:29.650Z,14.30
2023-01-11T02:58:58.429Z,14.20
2023-01-11T03:01:25.614Z,14.30
2023-01-11T03:03:53.544Z,14.30
2023-01-11T03:06:28.450Z,14.40
2023-01-11T03:09:26.071Z,14.30
2023-01-11T03:12:51.794Z,14.40
2023-01-11T03:15:42.106Z,14.40
2023-01-11T03:18:31.235Z,14.40
2023-01-11T03:21:31.448Z,14.40
2023-01-11T03:24:27.785Z,14.40
2023-01-11T03:27:13.106Z,14.50
2023-01-11T03:29:47.589Z,14.50
2023-01-11T03:32:21.019Z,14.40
2023-01-11T03:34:53.529Z,14.30
2023-01-11T03:37:28.367Z,14.40
2023-01-11T03:40:03.992Z,14.90
2023-01-11T03:42:33.934Z,14.50
2023-01-11T03:45:02.344Z,14.40
2023-01-11T03:47:30.429Z,14.40
2023-01-11T03:50:02.722Z,14.50
2023-01-11T03:52:33.975Z,14.50
2023-01-11T03:55:04.482Z,14.40
2023-01-11T03:57:38.566Z,14.50
2023-01-11T04:00:07.799Z,14.40
2023-01-11T04:02:39.193Z,14.50
2023-01-11T04:05:07.646Z,14.50
2023-01-11T04:07:34.799Z,14.50
2023-01-11T04:10:01.794Z,14.40
2023-01-11T04:12:28.647Z,14.40
2023-01-11T04:14:55.351Z,14.80
2023-01-11T04:17:22.049Z,15.20
2023-01-11T04:19:48.776Z,14.70
2023-01-11T04:22:15.576Z,14.50
2023-01-11T04:24:42.310Z,14.50
2023-01-11T04:27:09.063Z,14.70
2023-01-11T04:29:35.781Z,14.50
2023-01-11T04:32:03.597Z,14.40
2023-01-11T04:34:30.304Z,14.50
2023-01-11T04:36:57.134Z,14.50
2023-01-11T04:39:23.907Z,14.50
2023-01-11T04:42:09.027Z,14.50
2023-01-11T04:44:35.705Z,14.40
2023-01-11T04:47:02.570Z,14.40
2023-01-11T04:49:29.268Z,14.50
2023-01-11T04:51:56.007Z,14.50
2023-01-11T04:54:22.766Z,14.50
2023-01-11T04:56:49.440Z,14.50
2023-01-11T04:59:16.840Z,15.40
2023-01-11T05:01:43.664Z,14.50
2023-01-11T05:04:12.664Z,14.40
2023-01-11T05:06:40.204Z,15.20
2023-01-11T05:09:11.943Z,14.60
2023-01-11T05:11:38.680Z,14.60
2023-01-11T05:14:05.473Z,14.40
2023-01-11T05:16:32.273Z,14.50
2023-01-11T05:19:01.398Z,14.40
2023-01-11T05:21:36.083Z,14.40
2023-01-11T05:24:06.240Z,14.50
2023-01-11T05:26:35.631Z,14.50
2023-01-11T05:29:06.267Z,14.40
2023-01-11T05:31:34.884Z,15.20
2023-01-11T05:34:01.779Z,14.40
2023-01-11T05:36:29.209Z,14.30
2023-01-11T05:38:56.891Z,14.40
2023-01-11T05:41:26.351Z,14.30
2023-01-11T05:44:12.632Z,14.30
2023-01-11T05:46:41.357Z,14.40
2023-01-11T05:49:09.015Z,14.40
2023-01-11T05:51:36.869Z,14.30
2023-01-11T05:54:05.909Z,14.30
2023-01-11T05:56:32.822Z,14.40
2023-01-11T05:58:59.603Z,14.30
2023-01-11T06:01:26.865Z,15.20
2023-01-11T06:03:53.564Z,14.30
2023-01-11T06:06:21.467Z,14.30
2023-01-11T06:08:48.605Z,14.30
2023-01-11T06:11:15.458Z,14.20
2023-01-11T06:13:42.514Z,14.20
2023-01-11T06:16:14.633Z,14.20
2023-01-11T06:18:44.975Z,14.10
2023-01-11T06:21:12.977Z,14.80
2023-01-11T06:23:41.786Z,14.30
2023-01-11T06:26:11.718Z,14.10
2023-01-11T06:28:39.328Z,14.00
2023-01-11T06:31:06.811Z,14.10
2023-01-11T06:33:34.209Z,14.00
2023-01-11T06:36:07.690Z,14.90
2023-01-11T06:38:35.475Z,14.10
2023-01-11T06:41:04.099Z,14.00
2023-01-11T06:43:32.392Z,14.00
2023-01-11T06:45:59.982Z,14.00
2023-01-11T06:48:27.608Z,14.00
2023-01-11T06:50:57.699Z,14.10
2023-01-11T06:53:28.341Z,14.00
2023-01-11T06:55:57.446Z,14.00
2023-01-11T06:58:25.848Z,13.90
2023-01-11T07:00:54.781Z,14.70
2023-01-11T07:03:23.931Z,13.90
2023-01-11T07:05:51.393Z,13.90
2023-01-11T07:08:18.830Z,13.80
2023-01-11T07:10:45.589Z,13.90
2023-01-11T07:13:12.781Z,13.80
2023-01-11T07:15:39.550Z,13.80
2023-01-11T07:18:06.284Z,13.70
2023-01-11T07:20:33.069Z,13.70
2023-01-11T07:23:00.824Z,13.70
2023-01-11T07:25:30.990Z,13.70
2023-01-11T07:28:02.412Z,13.70
2023-01-11T07:30:30.926Z,13.60
2023-01-11T07:32:58.648Z,13.60
2023-01-11T07:35:28.102Z,13.50
2023-01-11T07:37:55.704Z,13.50
2023-01-11T07:40:22.405Z,13.40
2023-01-11T07:43:14.461Z,13.30
2023-01-11T07:45:46.682Z,13.20
2023-01-11T07:48:15.035Z,13.20
2023-01-11T07:50:44.865Z,13.30
2023-01-11T07:53:12.897Z,13.30
2023-01-11T07:55:40.539Z,13.20
2023-01-11T07:58:11.937Z,13.20
2023-01-11T08:00:41.063Z,13.20
2023-01-11T08:03:08.481Z,13.20
2023-01-11T08:05:35.574Z,13.20
2023-01-11T08:08:02.556Z,13.20
2023-01-11T08:10:29.458Z,13.20
2023-01-11T08:13:15.311Z,13.20
2023-01-11T08:15:45.105Z,13.10
2023-01-11T08:18:12.772Z,13.10
2023-01-11T08:20:40.429Z,13.00
2023-01-11T08:23:09.810Z,13.00
2023-01-11T08:25:37.150Z,13.00
2023-01-11T08:28:06.695Z,13.00
2023-01-11T08:30:33.631Z,12.90
2023-01-11T08:33:01.516Z,12.90
2023-01-11T08:35:28.487Z,12.90
2023-01-11T08:37:55.147Z,12.90
2023-01-11T08:40:24.069Z,12.90
2023-01-11T08:42:58.296Z,12.70
2023-01-11T08:45:25.515Z,12.90
2023-01-11T08:47:52.961Z,12.80
2023-01-11T08:50:21.388Z,12.80
2023-01-11T08:52:51.135Z,12.80
2023-01-11T08:55:18.856Z,12.80
2023-01-11T08:57:45.911Z,12.70
2023-01-11T09:00:13.339Z,12.70
2023-01-11T09:02:40.324Z,12.80
2023-01-11T09:05:07.358Z,12.70
2023-01-11T09:07:34.169Z,12.70
2023-01-11T09:10:00.947Z,12.70
2023-01-11T09:12:27.735Z,12.60
2023-01-11T09:14:54.530Z,12.60
2023-01-11T09:17:21.335Z,12.60
2023-01-11T09:19:48.129Z,12.60
2023-01-11T09:22:14.861Z,12.60
2023-01-11T09:24:41.586Z,12.60
2023-01-11T09:27:08.408Z,12.60
2023-01-11T09:29:37.320Z,12.60
2023-01-11T09:32:04.612Z,12.70
2023-01-11T09:34:31.586Z,12.80
2023-01-11T09:37:00.526Z,12.80
2023-01-11T09:39:28.686Z,12.80
2023-01-11T09:42:21.562Z,12.90
2023-01-11T09:44:50.818Z,13.00
2023-01-11T09:47:34.060Z,13.30
2023-01-11T09:50:06.184Z,13.20
2023-01-11T09:52:41.071Z,13.20
2023-01-11T09:55:15.417Z,13.20
2023-01-11T09:58:11.855Z,13.20
2023-01-11T10:00:49.265Z,13.30
2023-01-11T10:03:19.469Z,13.30
2023-01-11T10:06:09.014Z,13.30
2023-01-11T10:18:41.543Z,13.30
2023-01-11T10:19:12.209Z,13.40
2023-01-11T10:21:37.433Z,13.50
2023-01-11T10:24:14.758Z,13.40
2023-01-11T10:26:41.973Z,14.00
2023-01-11T10:29:17.278Z,14.50
2023-01-11T10:32:09.620Z,13.60
2023-01-11T10:35:02.376Z,13.70
2023-01-11T10:37:56.953Z,13.90
2023-01-11T10:40:59.350Z,14.10
2023-01-11T10:43:26.840Z,14.50
2023-01-11T10:48:38.154Z,14.20
2023-01-11T10:51:25.380Z,14.20
2023-01-11T10:54:16.697Z,14.30
2023-01-11T10:57:15.908Z,14.20
2023-01-11T11:00:13.562Z,14.20
2023-01-11T11:02:56.036Z,14.10
2023-01-11T11:05:33.139Z,14.00
2023-01-11T11:08:27.026Z,13.90
2023-01-11T11:11:05.514Z,13.90
2023-01-11T11:13:43.287Z,14.00
2023-01-11T11:16:22.336Z,14.00
2023-01-11T11:18:55.669Z,14.00
2023-01-11T11:21:33.671Z,13.90
2023-01-11T11:24:23.387Z,14.00
2023-01-11T11:26:57.907Z,14.10
2023-01-11T11:29:30.447Z,14.20
2023-01-11T11:32:00.027Z,14.20
2023-01-11T11:34:28.215Z,14.10
2023-01-11T11:36:59.024Z,14.10
2023-01-11T11:39:29.219Z,14.10
2023-01-11T11:42:04.958Z,14.10
2023-01-11T11:44:32.039Z,14.10
2023-01-11T11:47:05.005Z,14.20
2023-01-11T11:49:42.147Z,14.20
2023-01-11T11:52:17.668Z,14.20
2023-01-11T11:54:56.803Z,14.40
2023-01-11T11:57:29.768Z,14.20
2023-01-11T12:00:07.508Z,15.00
2023-01-11T12:02:37.102Z,14.40
2023-01-11T12:05:10.187Z,14.30
2023-01-11T12:07:54.301Z,14.30
2023-01-11T12:10:24.519Z,15.00
2023-01-11T12:12:55.958Z,14.00
2023-01-11T12:15:22.767Z,14.00
2023-01-11T12:17:50.042Z,14.10
2023-01-11T12:20:22.337Z,14.10
2023-01-11T12:22:50.701Z,14.20
2023-01-11T12:25:17.396Z,14.10
2023-01-11T12:27:50.653Z,14.50
2023-01-11T12:30:20.400Z,14.20
2023-01-11T12:32:53.485Z,14.40
2023-01-11T12:35:56.372Z,14.40
2023-01-11T12:38:41.171Z,14.60
2023-01-11T12:41:44.758Z,14.80
2023-01-11T12:44:34.308Z,14.70
2023-01-11T12:47:06.775Z,14.70
2023-01-11T12:49:54.882Z,15.00
2023-01-11T12:52:56.837Z,14.40
2023-01-11T12:55:29.435Z,14.40
2023-01-11T12:58:19.698Z,14.30
2023-01-11T13:01:14.791Z,14.00
2023-01-11T13:03:59.784Z,14.00
2023-01-11T13:06:49.631Z,14.00
2023-01-11T13:09:16.835Z,14.00
2023-01-11T13:11:58.087Z,14.00
2023-01-11T13:14:49.718Z,14.10
2023-01-11T13:17:24.057Z,14.10
2023-01-11T13:20:05.976Z,14.10
2023-01-11T13:22:38.028Z,14.10
2023-01-11T13:25:23.875Z,14.00
2023-01-11T13:27:52.601Z,14.00
2023-01-11T13:30:20.139Z,13.90
2023-01-11T13:33:03.040Z,13.90
2023-01-11T13:35:42.240Z,14.00
2023-01-11T13:38:34.561Z,14.00
2023-01-11T13:41:31.205Z,14.10
2023-01-11T13:44:06.417Z,14.30
2023-01-11T13:46:57.706Z,14.30
2023-01-11T13:49:43.289Z,14.30
2023-01-11T13:52:20.247Z,14.50
2023-01-11T13:55:02.022Z,14.40
2023-01-11T13:57:43.566Z,14.40
2023-01-11T14:00:18.963Z,14.60
2023-01-11T14:02:57.625Z,14.60
2023-01-11T14:05:28.820Z,14.50
2023-01-11T14:08:19.027Z,14.30
2023-01-11T14:11:01.854Z,14.40
2023-01-11T14:14:15.671Z,14.30
2023-01-11T14:17:06.356Z,14.40
2023-01-11T14:19:48.242Z,14.50
2023-01-11T14:22:41.229Z,14.60
2023-01-11T14:25:16.871Z,14.40
2023-01-11T14:28:25.465Z,14.20
2023-01-11T14:30:55.269Z,14.10
2023-01-11T14:33:35.330Z,13.90
2023-01-11T14:36:13.966Z,13.90
2023-01-11T14:39:01.818Z,13.90
2023-01-11T14:41:34.603Z,13.90
2023-01-11T14:44:38.963Z,14.00
2023-01-11T14:47:17.806Z,14.00
2023-01-11T14:50:05.018Z,14.00
2023-01-11T14:52:40.808Z,14.00
2023-01-11T14:55:27.708Z,13.80
2023-01-11T14:58:21.454Z,13.90
2023-01-11T15:00:48.244Z,13.70
2023-01-11T15:03:19.563Z,13.60
2023-01-11T15:05:55.458Z,13.50
2023-01-11T15:08:25.880Z,13.50
2023-01-11T15:10:59.027Z,13.30
2023-01-11T15:13:29.790Z,13.30
2023-01-11T15:16:36.806Z,13.30
2023-01-11T15:19:11.473Z,13.20
2023-01-11T15:21:47.388Z,13.20
2023-01-11T15:24:25.289Z,13.10
2023-01-11T15:26:52.729Z,13.10
2023-01-11T15:29:23.124Z,13.00
2023-01-11T15:32:15.346Z,13.10
2023-01-11T15:34:45.739Z,13.10
2023-01-11T15:37:36.920Z,13.10
2023-01-11T15:40:09.884Z,13.10
2023-01-11T15:42:48.757Z,13.00
2023-01-11T15:46:05.656Z,13.10
2023-01-11T15:48:44.205Z,13.00
2023-01-11T15:51:45.924Z,13.00
2023-01-11T15:54:25.133Z,12.90
2023-01-11T15:57:35.850Z,12.90
2023-01-11T16:00:30.218Z,12.80
2023-01-11T16:03:22.922Z,12.80
2023-01-11T16:06:24.339Z,12.80
2023-01-11T16:09:00.012Z,12.80
2023-01-11T16:12:02.689Z,12.90
2023-01-11T16:15:08.281Z,12.90
2023-01-11T16:17:39.747Z,13.00
2023-01-11T16:20:22.914Z,12.90
2023-01-11T16:22:57.148Z,12.90
2023-01-11T16:25:28.879Z,13.00
2023-01-11T16:27:58.727Z,13.00
2023-01-11T16:30:26.730Z,12.80
2023-01-11T16:32:53.669Z,12.80
2023-01-11T16:35:23.605Z,12.70
2023-01-11T16:37:56.268Z,12.70
2023-01-11T16:40:33.825Z,12.70
2023-01-11T16:43:29.008Z,12.70
2023-01-11T16:45:56.150Z,12.60
2023-01-11T16:48:28.551Z,12.60
2023-01-11T16:51:10.044Z,12.60
2023-01-11T16:53:39.323Z,12.60
2023-01-11T16:56:16.480Z,12.50
2023-01-11T16:58:43.390Z,12.50
2023-01-11T17:01:14.909Z,12.60
2023-01-11T17:03:53.549Z,12.60
2023-01-11T17:06:24.935Z,12.60
2023-01-11T17:08:56.860Z,12.60
2023-01-11T17:11:53.110Z,12.60
2023-01-11T17:14:37.679Z,12.70
2023-01-11T17:17:10.642Z,12.70
2023-01-11T17:19:49.599Z,12.70
2023-01-11T17:22:18.263Z,12.70
2023-01-11T17:25:03.509Z,12.60
2023-01-11T17:27:40.541Z,12.60
2023-01-11T17:30:17.995Z,12.60
2023-01-11T17:32:48.175Z,12.60
2023-01-11T17:35:23.329Z,12.60
2023-01-11T17:37:56.399Z,12.80
2023-01-11T17:40:57.387Z,12.80
2023-01-11T17:43:45.025Z,12.70
2023-01-11T17:46:25.646Z,12.80
2023-01-11T17:49:00.463Z,12.70
2023-01-11T17:51:29.419Z,12.70
2023-01-11T17:53:56.202Z,12.80
2023-01-11T17:56:41.747Z,12.90
2023-01-11T17:59:11.207Z,12.90
2023-01-11T18:01:38.184Z,12.90
2023-01-11T18:04:04.987Z,12.80
2023-01-11T18:06:39.948Z,12.90
2023-01-11T18:09:17.599Z,12.90
2023-01-11T18:11:44.799Z,12.90
2023-01-11T18:14:29.835Z,12.90
2023-01-11T18:17:24.908Z,12.90
2023-01-11T18:19:52.035Z,13.00
2023-01-11T18:22:40.601Z,13.00
2023-01-11T18:25:24.084Z,13.00
2023-01-11T18:27:51.279Z,13.10
2023-01-11T18:30:33.136Z,13.00
2023-01-11T18:33:02.176Z,13.60
2023-01-11T18:35:29.612Z,13.00
2023-01-11T18:37:56.408Z,13.90
2023-01-11T18:40:23.167Z,13.00
2023-01-11T18:42:52.121Z,12.90
2023-01-11T18:45:20.063Z,12.80
2023-01-11T18:47:46.750Z,12.80
2023-01-11T18:50:14.230Z,13.60
2023-01-11T18:52:40.991Z,13.00
2023-01-11T18:55:11.386Z,13.00
2023-01-11T18:57:38.159Z,12.90
2023-01-11T19:00:05.623Z,12.90
2023-01-11T19:02:42.282Z,12.90
2023-01-11T19:05:16.555Z,12.90
2023-01-11T19:07:43.879Z,12.80
2023-01-11T19:10:21.803Z,12.80
2023-01-11T19:12:48.849Z,12.90
2023-01-11T19:15:15.844Z,13.00
2023-01-11T19:17:43.450Z,12.90
2023-01-11T19:20:11.121Z,13.70
2023-01-11T19:22:38.194Z,12.80
2023-01-11T19:25:06.656Z,12.80
2023-01-11T19:27:33.374Z,12.80
2023-01-11T19:30:00.074Z,12.70
2023-01-11T19:32:26.812Z,12.60
2023-01-11T19:34:57.853Z,12.70
2023-01-11T19:37:30.185Z,12.70
2023-01-11T19:39:57.003Z,12.60
2023-01-11T19:42:23.907Z,12.70
2023-01-11T19:44:51.351Z,13.30
2023-01-11T19:47:18.172Z,12.70
2023-01-11T19:49:45.105Z,12.60
2023-01-11T19:52:14.541Z,12.60
2023-01-11T19:54:45.558Z,12.50
2023-01-11T19:57:14.652Z,12.50
2023-01-11T19:59:42.148Z,12.40
2023-01-11T20:02:11.824Z,12.40
2023-01-11T20:04:38.718Z,12.40
2023-01-11T20:07:06.482Z,12.20
2023-01-11T20:09:33.290Z,12.10
2023-01-11T20:12:00.125Z,12.10
2023-01-11T20:14:26.888Z,12.10
2023-01-11T20:16:53.661Z,12.20
2023-01-11T20:19:20.484Z,12.70
2023-01-11T20:21:47.195Z,12.00
2023-01-11T20:24:14.772Z,12.00
2023-01-11T20:26:42.523Z,12.10
2023-01-11T20:29:09.257Z,12.00
2023-01-11T20:31:36.400Z,12.10
2023-01-11T20:34:09.848Z,12.10
2023-01-11T20:36:37.528Z,12.10
2023-01-11T20:39:04.956Z,12.10
2023-01-11T20:41:46.904Z,12.00
2023-01-11T20:44:18.012Z,12.10
2023-01-11T20:46:48.024Z,12.10
2023-01-11T20:49:15.837Z,12.10
2023-01-11T20:51:42.924Z,12.00
2023-01-11T20:54:10.386Z,12.10
2023-01-11T20:56:38.583Z,12.10
2023-01-11T20:59:09.388Z,12.10
2023-01-11T21:01:36.854Z,12.10
2023-01-11T21:04:06.259Z,12.10
2023-01-11T21:06:35.315Z,12.30
2023-01-11T21:09:02.749Z,12.30
2023-01-11T21:11:33.206Z,12.20
2023-01-11T21:14:01.611Z,12.20
2023-01-11T21:16:29.929Z,13.10
2023-01-11T21:18:58.920Z,12.40
2023-01-11T21:21:27.250Z,12.30
2023-01-11T21:23:56.303Z,12.20
2023-01-11T21:26:24.162Z,12.30
2023-01-11T21:28:53.844Z,12.30
2023-01-11T21:31:21.339Z,12.40
2023-01-11T21:33:49.516Z,12.30
2023-01-11T21:36:18.557Z,12.40
2023-01-11T21:38:45.367Z,12.30
2023-01-11T21:41:44.094Z,12.40
2023-01-11T21:44:12.594Z,12.30
2023-01-11T21:46:40.126Z,12.40
2023-01-11T21:49:07.163Z,13.00
2023-01-11T21:51:34.483Z,12.60
2023-01-11T21:54:05.408Z,12.60
2023-01-11T21:56:32.519Z,12.50
2023-01-11T21:58:59.344Z,12.50
2023-01-11T22:01:26.391Z,12.50
2023-01-11T22:03:53.168Z,12.50
2023-01-11T22:06:19.885Z,12.50
2023-01-11T22:08:46.865Z,12.60
2023-01-11T22:11:16.073Z,12.60
2023-01-11T22:13:43.350Z,12.60
2023-01-11T22:16:15.810Z,12.70
2023-01-11T22:18:43.072Z,12.60
2023-01-11T22:21:18.174Z,12.60
2023-01-11T22:23:47.101Z,12.70
2023-01-11T22:26:18.206Z,12.60
2023-01-11T22:29:04.869Z,12.50
2023-01-11T22:31:33.377Z,12.70
2023-01-11T22:34:00.678Z,12.60
2023-01-11T22:36:28.820Z,12.60
2023-01-11T22:38:56.171Z,12.60
2023-01-11T22:41:24.855Z,12.70
2023-01-11T22:43:51.891Z,12.70
2023-01-11T22:46:21.250Z,12.80
2023-01-11T22:48:48.704Z,12.70
2023-01-11T22:51:17.420Z,12.70
2023-01-11T22:53:46.617Z,12.70
2023-01-11T22:56:15.168Z,12.80
2023-01-11T22:58:41.902Z,12.70
2023-01-11T23:01:16.044Z,12.60
2023-01-11T23:03:43.353Z,12.60
2023-01-11T23:06:10.302Z,12.70
2023-01-11T23:08:42.044Z,12.70
2023-01-11T23:11:38.591Z,12.60
2023-01-11T23:14:10.451Z,12.60
2023-01-11T23:16:38.048Z,12.70
2023-01-11T23:19:06.910Z,12.60
2023-01-11T23:21:34.832Z,13.40
2023-01-11T23:24:02.316Z,12.60
2023-01-11T23:26:29.872Z,12.60
2023-01-11T23:28:57.266Z,12.70
2023-01-11T23:31:25.733Z,12.60
2023-01-11T23:33:55.142Z,12.50
2023-01-11T23:36:24.100Z,12.60
2023-01-11T23:38:51.318Z,12.70
2023-01-11T23:41:38.642Z,12.80
2023-01-11T23:44:10.761Z,12.60
2023-01-11T23:46:57.520Z,12.70
2023-01-11T23:49:27.278Z,12.70
2023-01-11T23:51:55.060Z,12.80
2023-01-11T23:54:21.937Z,12.60
2023-01-11T23:56:49.150Z,12.70
2023-01-11T23:59:15.931Z,12.80
